createdAt,value
2018-01-22T00:02:25.719Z,-3.50
2018-01-22T00:04:52.124Z,-3.50
2018-01-22T00:07:18.546Z,-3.50
2018-01-22T00:09:44.938Z,-3.40
2018-01-22T00:12:11.366Z,-3.40
2018-01-22T00:14:37.773Z,-3.30
2018-01-22T00:17:04.195Z,-3.20
2018-01-22T00:19:30.606Z,-3.20
2018-01-22T00:21:57.741Z,-3.00
2018-01-22T00:24:24.938Z,-2.90
2018-01-22T00:26:51.410Z,-3.00
2018-01-22T00:29:17.850Z,-2.90
2018-01-22T00:31:44.337Z,-2.90
2018-01-22T00:34:10.752Z,-2.80
2018-01-22T00:36:37.182Z,-2.80
2018-01-22T00:39:04.411Z,-2.80
2018-01-22T00:41:30.798Z,-2.80
2018-01-22T00:43:57.214Z,-2.70
2018-01-22T00:46:23.641Z,-2.70
2018-01-22T00:48:50.101Z,-2.60
2018-01-22T00:51:16.534Z,-2.60
2018-01-22T00:53:42.938Z,-2.60
2018-01-22T00:56:10.089Z,-2.50
2018-01-22T00:58:37.224Z,-2.50
2018-01-22T01:01:03.638Z,-2.60
2018-01-22T01:03:30.779Z,-2.40
2018-01-22T01:05:57.174Z,-2.40
2018-01-22T01:08:23.634Z,-2.40
2018-01-22T01:10:50.004Z,-2.30
2018-01-22T01:13:16.430Z,-2.30
2018-01-22T01:15:42.842Z,-2.30
2018-01-22T01:18:09.257Z,-2.20
2018-01-22T01:20:35.694Z,-2.20
2018-01-22T01:23:02.088Z,-2.20
2018-01-22T01:25:29.238Z,-2.10
2018-01-22T01:27:56.401Z,-2.00
2018-01-22T01:30:23.566Z,-2.00
2018-01-22T01:32:49.997Z,-2.10
2018-01-22T01:35:16.404Z,-2.00
2018-01-22T01:37:43.582Z,-1.90
2018-01-22T01:40:10.707Z,-1.90
2018-01-22T01:42:37.145Z,-1.90
2018-01-22T01:45:04.317Z,-1.90
2018-01-22T01:47:30.696Z,-1.90
2018-01-22T01:49:57.105Z,-1.80
2018-01-22T01:52:23.542Z,-1.80
2018-01-22T01:54:49.966Z,-1.70
2018-01-22T01:57:16.365Z,-1.70
2018-01-22T01:59:42.793Z,-1.70
2018-01-22T02:02:09.224Z,-1.70
2018-01-22T02:04:35.635Z,-1.70
2018-01-22T02:07:02.035Z,-1.70
2018-01-22T02:09:28.454Z,-1.60
2018-01-22T02:11:55.604Z,-1.60
2018-01-22T02:14:22.757Z,-1.60
2018-01-22T02:16:49.877Z,-1.60
2018-01-22T02:19:16.311Z,-1.70
2018-01-22T02:21:42.779Z,-1.60
2018-01-22T02:24:09.916Z,-1.50
2018-01-22T02:26:36.327Z,-1.60
2018-01-22T02:29:02.713Z,-1.50
2018-01-22T02:31:29.128Z,-1.50
2018-01-22T02:33:56.246Z,-1.50
2018-01-22T02:36:22.687Z,-1.60
2018-01-22T02:38:49.101Z,-1.50
2018-01-22T02:41:15.569Z,-1.50
2018-01-22T02:43:41.985Z,-1.50
2018-01-22T02:46:08.374Z,-1.50
2018-01-22T02:48:34.792Z,-1.50
2018-01-22T02:51:01.948Z,-1.50
2018-01-22T02:53:28.341Z,-1.60
2018-01-22T02:55:54.746Z,-1.50
2018-01-22T02:58:21.146Z,-1.50
2018-01-22T03:00:47.531Z,-1.50
2018-01-22T03:03:13.946Z,-1.40
2018-01-22T03:05:40.329Z,-1.40
2018-01-22T03:08:07.483Z,-1.40
2018-01-22T03:10:34.646Z,-1.40
2018-01-22T03:13:01.766Z,-1.40
2018-01-22T03:15:28.177Z,-1.50
2018-01-22T03:17:54.574Z,-1.40
2018-01-22T03:20:21.030Z,-1.40
2018-01-22T03:22:47.403Z,-1.40
2018-01-22T03:25:13.820Z,-1.40
2018-01-22T03:27:40.234Z,-1.50
2018-01-22T03:30:06.627Z,-1.50
2018-01-22T03:32:33.813Z,-1.50
2018-01-22T03:35:00.218Z,-1.50
2018-01-22T03:37:27.426Z,-1.50
2018-01-22T03:39:53.827Z,-1.50
2018-01-22T03:42:20.238Z,-1.50
2018-01-22T03:44:47.389Z,-1.50
2018-01-22T03:47:14.518Z,-1.50
2018-01-22T03:49:40.938Z,-1.50
2018-01-22T03:52:07.334Z,-1.50
2018-01-22T03:54:33.757Z,-1.50
2018-01-22T03:57:00.149Z,-1.50
2018-01-22T03:59:26.562Z,-1.50
2018-01-22T04:01:52.931Z,-1.50
2018-01-22T04:04:19.361Z,-1.50
2018-01-22T04:06:46.573Z,-1.50
2018-01-22T04:09:12.943Z,-1.50
2018-01-22T04:11:39.393Z,-1.50
2018-01-22T04:14:06.572Z,-1.50
2018-01-22T04:16:50.030Z,-1.50
2018-01-22T04:19:30.027Z,-1.50
2018-01-22T04:22:00.649Z,-1.50
2018-01-22T04:24:32.314Z,-1.50
2018-01-22T04:27:03.090Z,-1.50
2018-01-22T04:29:47.181Z,-1.50
2018-01-22T04:32:25.187Z,-1.50
2018-01-22T04:34:54.467Z,-1.50
2018-01-22T04:37:23.585Z,-1.50
2018-01-22T04:39:53.164Z,-1.60
2018-01-22T04:42:21.974Z,-1.60
2018-01-22T04:44:50.804Z,-1.60
2018-01-22T04:47:19.956Z,-1.60
2018-01-22T04:49:46.438Z,-1.60
2018-01-22T04:52:13.594Z,-1.60
2018-01-22T04:54:40.746Z,-1.50
2018-01-22T04:57:07.872Z,-1.50
2018-01-22T04:59:34.274Z,-1.60
2018-01-22T05:02:00.673Z,-1.50
2018-01-22T05:04:27.881Z,-1.60
2018-01-22T05:06:54.295Z,-1.60
2018-01-22T05:09:20.709Z,-1.50
2018-01-22T05:11:47.164Z,-1.50
2018-01-22T05:14:15.211Z,-1.60
2018-01-22T05:16:41.656Z,-1.50
2018-01-22T05:19:08.073Z,-1.50
2018-01-22T05:21:34.518Z,-1.50
2018-01-22T05:24:00.969Z,-1.50
2018-01-22T05:26:27.345Z,-1.50
2018-01-22T05:28:53.798Z,-1.50
2018-01-22T05:31:20.926Z,-1.50
2018-01-22T05:33:47.346Z,-1.60
2018-01-22T05:36:13.762Z,-1.50
2018-01-22T05:38:40.184Z,-1.50
2018-01-22T05:41:06.601Z,-1.50
2018-01-22T05:43:33.007Z,-1.50
2018-01-22T05:45:59.412Z,-1.50
2018-01-22T05:48:25.826Z,-1.40
2018-01-22T05:50:52.234Z,-1.40
2018-01-22T05:53:19.450Z,-1.40
2018-01-22T05:55:46.010Z,-1.50
2018-01-22T05:58:13.191Z,-1.40
2018-01-22T06:00:39.744Z,-1.50
2018-01-22T06:03:06.181Z,-1.40
2018-01-22T06:05:32.577Z,-1.40
2018-01-22T06:07:59.747Z,-1.50
2018-01-22T06:10:26.170Z,-1.50
2018-01-22T06:12:53.309Z,-1.50
2018-01-22T06:15:20.485Z,-1.40
2018-01-22T06:17:46.910Z,-1.50
2018-01-22T06:20:13.327Z,-1.40
2018-01-22T06:22:40.509Z,-1.40
2018-01-22T06:25:06.918Z,-1.50
2018-01-22T06:27:34.051Z,-1.40
2018-01-22T06:30:01.194Z,-1.40
2018-01-22T06:32:27.597Z,-1.50
2018-01-22T06:34:53.973Z,-1.40
2018-01-22T06:37:20.415Z,-1.40
2018-01-22T06:39:47.534Z,-1.40
2018-01-22T06:42:13.941Z,-1.50
2018-01-22T06:44:40.381Z,-1.40
2018-01-22T06:47:06.820Z,-1.30
2018-01-22T06:49:33.229Z,-1.30
2018-01-22T06:51:59.752Z,-1.40
2018-01-22T06:54:26.906Z,-1.30
2018-01-22T06:56:54.083Z,-1.30
2018-01-22T06:59:20.507Z,-1.30
2018-01-22T07:01:46.920Z,-1.30
2018-01-22T07:04:14.086Z,-1.20
2018-01-22T07:06:40.475Z,-1.30
2018-01-22T07:09:06.914Z,-1.20
2018-01-22T07:11:33.336Z,-1.20
2018-01-22T07:13:59.777Z,-1.10
2018-01-22T07:16:26.168Z,-1.10
2018-01-22T07:18:52.578Z,-1.10
2018-01-22T07:21:19.713Z,-1.00
2018-01-22T07:23:46.120Z,-1.10
2018-01-22T07:26:12.520Z,-1.00
2018-01-22T07:28:38.890Z,-1.00
2018-01-22T07:31:05.315Z,-1.00
2018-01-22T07:33:31.738Z,-0.90
2018-01-22T07:35:58.154Z,-0.90
2018-01-22T07:38:24.601Z,-0.80
2018-01-22T07:40:51.046Z,-0.70
2018-01-22T07:43:17.489Z,-0.70
2018-01-22T07:45:43.893Z,-0.60
2018-01-22T07:48:10.314Z,-0.60
2018-01-22T07:50:36.686Z,-0.50
2018-01-22T07:53:03.107Z,-0.40
2018-01-22T07:55:29.494Z,-0.40
2018-01-22T07:57:55.881Z,-0.30
2018-01-22T08:00:22.343Z,-0.30
2018-01-22T08:02:48.720Z,-0.30
2018-01-22T08:05:15.152Z,-0.20
2018-01-22T08:07:42.293Z,-0.10
2018-01-22T08:10:09.397Z,0.00
2018-01-22T08:12:35.806Z,0.00
2018-01-22T08:15:02.226Z,0.10
2018-01-22T08:17:28.645Z,0.20
2018-01-22T08:19:55.794Z,0.30
2018-01-22T08:22:22.942Z,0.20
2018-01-22T08:24:50.102Z,0.30
2018-01-22T08:27:17.238Z,0.30
2018-01-22T08:29:43.644Z,0.20
2018-01-22T08:32:10.013Z,0.30
2018-01-22T08:34:37.142Z,0.40
2018-01-22T08:37:03.542Z,0.30
2018-01-22T08:39:29.941Z,0.50
2018-01-22T08:41:57.112Z,0.60
2018-01-22T08:44:23.510Z,0.50
2018-01-22T08:46:49.949Z,0.60
2018-01-22T08:49:17.117Z,0.70
2018-01-22T08:51:44.257Z,0.80
2018-01-22T08:54:11.414Z,0.80
2018-01-22T08:56:38.581Z,0.90
2018-01-22T08:59:05.002Z,0.90
2018-01-22T09:01:32.171Z,1.10
2018-01-22T09:03:59.329Z,1.10
2018-01-22T09:06:25.754Z,1.10
2018-01-22T09:08:52.126Z,1.20
2018-01-22T09:11:18.529Z,1.20
2018-01-22T09:13:44.908Z,1.00
2018-01-22T09:16:11.340Z,1.10
2018-01-22T09:18:37.716Z,1.10
2018-01-22T09:21:04.865Z,1.00
2018-01-22T09:23:32.003Z,1.10
2018-01-22T09:25:59.183Z,1.30
2018-01-22T09:28:25.597Z,1.20
2018-01-22T09:30:52.734Z,1.60
2018-01-22T09:33:19.166Z,1.60
2018-01-22T09:35:45.569Z,1.80
2018-01-22T09:38:11.990Z,1.70
2018-01-22T09:40:38.410Z,1.70
2018-01-22T09:43:04.787Z,1.90
2018-01-22T09:45:31.025Z,1.90
2018-01-22T09:47:57.247Z,1.80
2018-01-22T09:50:23.489Z,1.90
2018-01-22T09:52:49.703Z,2.00
2018-01-22T09:55:15.930Z,2.00
2018-01-22T09:57:42.197Z,2.10
2018-01-22T10:00:09.157Z,2.40
2018-01-22T10:02:35.388Z,2.40
2018-01-22T10:05:01.600Z,2.80
2018-01-22T10:07:28.586Z,2.60
2018-01-22T10:09:54.792Z,2.60
2018-01-22T10:12:21.762Z,2.40
2018-01-22T10:14:48.003Z,2.30
2018-01-22T10:17:14.223Z,2.50
2018-01-22T10:19:40.474Z,2.50
2018-01-22T10:22:06.687Z,2.50
2018-01-22T10:24:32.928Z,2.60
2018-01-22T10:26:59.142Z,2.60
2018-01-22T10:29:25.371Z,2.80
2018-01-22T10:31:51.615Z,2.50
2018-01-22T10:34:17.850Z,2.90
2018-01-22T10:36:44.100Z,3.00
2018-01-22T10:39:10.299Z,3.00
2018-01-22T10:41:36.522Z,3.00
2018-01-22T10:44:02.743Z,3.00
2018-01-22T10:46:28.987Z,2.60
2018-01-22T10:48:55.231Z,2.60
2018-01-22T10:51:21.464Z,2.70
2018-01-22T10:53:47.721Z,2.80
2018-01-22T10:56:13.936Z,3.20
2018-01-22T10:58:40.175Z,3.40
2018-01-22T11:01:06.589Z,3.70
2018-01-22T11:03:33.018Z,3.90
2018-01-22T11:05:59.413Z,4.20
2018-01-22T11:08:25.847Z,4.40
2018-01-22T11:10:52.288Z,4.40
2018-01-22T11:13:18.680Z,4.10
2018-01-22T11:15:51.254Z,4.10
2018-01-22T11:18:17.671Z,4.00
2018-01-22T11:20:44.078Z,4.30
2018-01-22T11:23:10.457Z,4.30
2018-01-22T11:25:37.607Z,4.30
2018-01-22T11:28:04.107Z,4.20
2018-01-22T11:30:30.505Z,4.40
2018-01-22T11:32:57.675Z,4.10
2018-01-22T11:35:24.064Z,4.10
2018-01-22T11:37:50.472Z,4.10
2018-01-22T11:40:16.866Z,4.00
2018-01-22T11:42:43.282Z,3.80
2018-01-22T11:45:10.412Z,3.70
2018-01-22T11:47:36.838Z,3.60
2018-01-22T11:50:03.286Z,3.60
2018-01-22T11:52:29.676Z,3.50
2018-01-22T11:54:56.085Z,3.40
2018-01-22T11:57:23.200Z,3.40
2018-01-22T11:59:49.606Z,3.40
2018-01-22T12:02:15.994Z,3.50
2018-01-22T12:04:43.131Z,3.90
2018-01-22T12:07:09.534Z,3.90
2018-01-22T12:09:35.934Z,3.90
2018-01-22T12:12:02.364Z,3.80
2018-01-22T12:14:28.738Z,3.40
2018-01-22T12:16:55.151Z,3.30
2018-01-22T12:19:21.569Z,3.50
2018-01-22T12:21:47.966Z,3.60
2018-01-22T12:24:14.394Z,3.60
2018-01-22T12:26:40.783Z,3.50
2018-01-22T12:29:07.934Z,3.30
2018-01-22T12:31:34.312Z,3.20
2018-01-22T12:34:00.713Z,3.30
2018-01-22T12:36:27.150Z,3.40
2018-01-22T12:38:53.554Z,3.50
2018-01-22T12:41:19.925Z,3.60
2018-01-22T12:43:46.360Z,3.50
2018-01-22T12:46:12.790Z,3.20
2018-01-22T12:48:39.257Z,3.10
2018-01-22T12:51:05.691Z,3.00
2018-01-22T12:53:32.110Z,2.90
2018-01-22T12:55:58.494Z,2.90
2018-01-22T12:58:24.879Z,3.20
2018-01-22T13:00:51.298Z,3.20
2018-01-22T13:03:17.701Z,3.10
2018-01-22T13:05:44.122Z,3.20
2018-01-22T13:08:10.524Z,3.40
2018-01-22T13:10:37.695Z,3.40
2018-01-22T13:13:04.825Z,3.40
2018-01-22T13:15:31.237Z,3.30
2018-01-22T13:17:57.618Z,3.30
2018-01-22T13:20:24.794Z,3.20
2018-01-22T13:22:51.166Z,3.10
2018-01-22T13:25:17.579Z,3.20
2018-01-22T13:27:43.988Z,3.20
2018-01-22T13:30:10.450Z,3.00
2018-01-22T13:32:36.859Z,2.90
2018-01-22T13:35:03.309Z,2.90
2018-01-22T13:37:29.746Z,3.00
2018-01-22T13:40:02.186Z,3.00
2018-01-22T13:42:29.322Z,3.30
2018-01-22T13:44:55.713Z,3.20
2018-01-22T13:47:22.114Z,3.30
2018-01-22T13:49:49.282Z,3.20
2018-01-22T13:52:15.685Z,3.20
2018-01-22T13:54:42.831Z,2.70
2018-01-22T13:57:09.245Z,2.60
2018-01-22T13:59:35.660Z,2.70
2018-01-22T14:02:02.089Z,2.80
2018-01-22T14:04:28.501Z,3.00
2018-01-22T14:06:54.880Z,3.50
2018-01-22T14:09:21.293Z,3.90
2018-01-22T14:11:47.678Z,4.20
2018-01-22T14:14:14.849Z,4.80
2018-01-22T14:16:41.249Z,4.80
2018-01-22T14:19:07.634Z,4.90
2018-01-22T14:21:34.062Z,4.90
2018-01-22T14:24:00.437Z,4.90
2018-01-22T14:26:26.828Z,5.00
2018-01-22T14:28:53.210Z,5.00
2018-01-22T14:31:19.631Z,5.00
2018-01-22T14:33:46.039Z,5.00
2018-01-22T14:36:12.471Z,5.00
2018-01-22T14:38:38.878Z,5.10
2018-01-22T14:41:07.391Z,5.20
2018-01-22T14:43:33.794Z,5.20
2018-01-22T14:46:00.930Z,5.20
2018-01-22T14:48:28.087Z,5.10
2018-01-22T14:50:55.198Z,5.10
2018-01-22T14:53:21.624Z,5.10
2018-01-22T14:55:48.035Z,5.20
2018-01-22T14:58:14.530Z,5.10
2018-01-22T15:00:40.958Z,5.00
2018-01-22T15:03:07.331Z,5.10
2018-01-22T15:05:33.740Z,5.20
2018-01-22T15:08:00.864Z,5.20
2018-01-22T15:10:27.297Z,5.20
2018-01-22T15:12:53.692Z,5.00
2018-01-22T15:15:20.074Z,5.00
2018-01-22T15:17:46.525Z,4.90
2018-01-22T15:20:13.774Z,4.90
2018-01-22T15:22:40.213Z,4.80
2018-01-22T15:25:07.374Z,4.80
2018-01-22T15:27:34.527Z,4.80
2018-01-22T15:30:01.637Z,4.80
2018-01-22T15:32:28.099Z,4.70
2018-01-22T15:34:54.478Z,4.80
2018-01-22T15:37:20.889Z,4.70
2018-01-22T15:39:47.294Z,4.80
2018-01-22T15:42:13.695Z,4.70
2018-01-22T15:44:40.110Z,4.70
2018-01-22T15:47:06.518Z,4.60
2018-01-22T15:49:33.657Z,4.40
2018-01-22T15:52:00.791Z,4.40
2018-01-22T15:54:27.228Z,4.30
2018-01-22T15:56:53.484Z,4.30
2018-01-22T15:59:20.437Z,4.30
2018-01-22T16:01:47.420Z,4.20
2018-01-22T16:04:13.639Z,4.20
2018-01-22T16:06:39.875Z,4.20
2018-01-22T16:09:06.082Z,4.20
2018-01-22T16:11:39.408Z,4.20
2018-01-22T16:14:05.650Z,4.10
2018-01-22T16:16:31.859Z,4.10
2018-01-22T16:18:58.100Z,4.00
2018-01-22T16:21:24.315Z,4.00
2018-01-22T16:23:50.549Z,4.00
2018-01-22T16:26:16.788Z,3.90
2018-01-22T16:28:43.059Z,3.90
2018-01-22T16:31:09.349Z,3.80
2018-01-22T16:33:35.596Z,3.90
2018-01-22T16:36:01.832Z,3.90
2018-01-22T16:38:28.043Z,4.00
2018-01-22T16:40:54.284Z,4.00
2018-01-22T16:43:20.513Z,4.00
2018-01-22T16:45:46.756Z,4.00
2018-01-22T16:48:12.997Z,4.10
2018-01-22T16:50:39.195Z,4.10
2018-01-22T16:53:05.451Z,4.00
2018-01-22T16:55:31.680Z,3.90
2018-01-22T16:57:57.928Z,3.90
2018-01-22T17:00:24.897Z,4.00
2018-01-22T17:02:51.150Z,4.00
2018-01-22T17:05:17.346Z,4.00
2018-01-22T17:07:44.321Z,4.10
2018-01-22T17:10:10.524Z,4.00
2018-01-22T17:12:37.489Z,4.10
2018-01-22T17:15:03.713Z,4.10
2018-01-22T17:17:29.940Z,4.20
2018-01-22T17:19:56.176Z,4.20
2018-01-22T17:22:22.794Z,4.20
2018-01-22T17:24:49.979Z,4.10
2018-01-22T17:27:16.360Z,4.00
2018-01-22T17:29:42.643Z,4.10
2018-01-22T17:32:09.165Z,4.20
2018-01-22T17:34:36.199Z,4.20
2018-01-22T17:37:03.688Z,4.20
2018-01-22T17:39:31.661Z,4.20
2018-01-22T17:41:59.374Z,4.20
2018-01-22T17:44:25.601Z,4.30
2018-01-22T17:46:51.845Z,4.30
2018-01-22T17:49:18.891Z,4.30
2018-01-22T17:51:45.893Z,4.30
2018-01-22T17:54:12.131Z,4.20
2018-01-22T17:56:38.385Z,4.20
2018-01-22T17:59:04.612Z,4.20
2018-01-22T18:01:30.856Z,4.10
2018-01-22T18:03:57.105Z,4.30
2018-01-22T18:06:24.062Z,4.30
2018-01-22T18:08:50.360Z,4.30
2018-01-22T18:11:17.340Z,4.20
2018-01-22T18:13:43.894Z,4.20
2018-01-22T18:16:11.068Z,4.30
2018-01-22T18:18:37.273Z,4.20
2018-01-22T18:21:03.534Z,4.20
2018-01-22T18:23:29.797Z,4.30
2018-01-22T18:25:56.755Z,4.10
2018-01-22T18:28:23.955Z,4.10
2018-01-22T18:30:50.188Z,4.10
2018-01-22T18:33:16.424Z,4.00
2018-01-22T18:35:42.683Z,4.00
2018-01-22T18:38:09.641Z,4.00
2018-01-22T18:40:36.670Z,3.90
2018-01-22T18:43:03.005Z,3.90
2018-01-22T18:45:29.296Z,3.90
2018-01-22T18:47:56.140Z,3.80
2018-01-22T18:50:22.700Z,3.70
2018-01-22T18:52:48.926Z,3.60
2018-01-22T18:55:18.324Z,3.60
2018-01-22T18:57:44.653Z,3.70
2018-01-22T19:00:10.904Z,3.70
2018-01-22T19:02:37.120Z,3.70
2018-01-22T19:05:03.395Z,3.80
2018-01-22T19:07:31.962Z,3.80
2018-01-22T19:09:59.324Z,3.70
2018-01-22T19:12:25.657Z,3.70
2018-01-22T19:14:52.619Z,3.80
2018-01-22T19:17:19.596Z,3.80
2018-01-22T19:19:45.899Z,3.80
2018-01-22T19:22:12.129Z,3.80
2018-01-22T19:24:38.328Z,3.90
2018-01-22T19:27:04.547Z,3.90
2018-01-22T19:29:31.524Z,3.80
2018-01-22T19:31:58.512Z,3.70
2018-01-22T19:34:24.744Z,3.60
2018-01-22T19:36:50.975Z,3.70
2018-01-22T19:39:17.188Z,3.60
2018-01-22T19:41:43.438Z,3.60
2018-01-22T19:44:09.676Z,3.50
2018-01-22T19:46:35.880Z,3.40
2018-01-22T19:49:02.116Z,3.40
2018-01-22T19:51:28.347Z,3.40
2018-01-22T19:53:54.592Z,3.40
2018-01-22T19:56:20.856Z,3.40
2018-01-22T19:58:47.070Z,3.40
2018-01-22T20:01:13.317Z,3.40
2018-01-22T20:03:40.278Z,3.40
2018-01-22T20:06:07.285Z,3.30
2018-01-22T20:08:33.519Z,3.30
2018-01-22T20:10:59.764Z,3.30
2018-01-22T20:13:26.018Z,3.40
2018-01-22T20:15:52.976Z,3.30
2018-01-22T20:18:19.949Z,3.30
2018-01-22T20:20:46.190Z,3.30
2018-01-22T20:23:12.405Z,3.40
2018-01-22T20:25:38.645Z,3.40
2018-01-22T20:28:04.848Z,3.50
2018-01-22T20:30:32.072Z,3.50
2018-01-22T20:32:58.599Z,3.40
2018-01-22T20:35:25.099Z,3.40
2018-01-22T20:37:51.337Z,3.40
2018-01-22T20:40:17.555Z,3.40
2018-01-22T20:42:45.280Z,3.40
2018-01-22T20:45:11.588Z,3.40
2018-01-22T20:47:37.880Z,3.40
2018-01-22T20:50:04.132Z,3.30
2018-01-22T20:52:30.353Z,3.20
2018-01-22T20:54:56.585Z,3.20
2018-01-22T20:57:22.848Z,3.20
2018-01-22T20:59:49.146Z,3.20
2018-01-22T21:02:15.410Z,3.10
2018-01-22T21:04:41.632Z,3.00
2018-01-22T21:07:07.906Z,2.90
2018-01-22T21:09:35.075Z,2.90
2018-01-22T21:12:01.921Z,2.90
2018-01-22T21:14:28.968Z,3.10
2018-01-22T21:16:55.828Z,3.20
2018-01-22T21:19:22.556Z,3.30
2018-01-22T21:21:49.712Z,3.30
2018-01-22T21:24:16.716Z,3.30
2018-01-22T21:26:43.745Z,3.30
2018-01-22T21:29:10.206Z,3.30
2018-01-22T21:31:37.472Z,3.40
2018-01-22T21:34:08.003Z,3.30
2018-01-22T21:36:39.243Z,3.40
2018-01-22T21:39:07.932Z,3.30
2018-01-22T21:41:40.462Z,3.40
2018-01-22T21:44:08.793Z,3.30
2018-01-22T21:46:36.660Z,3.40
2018-01-22T21:49:02.927Z,3.40
2018-01-22T21:51:29.145Z,3.30
2018-01-22T21:53:55.393Z,3.20
2018-01-22T21:56:21.655Z,3.10
2018-01-22T21:58:47.888Z,3.20
2018-01-22T22:01:14.145Z,3.10
2018-01-22T22:03:40.390Z,3.10
2018-01-22T22:06:06.640Z,3.10
2018-01-22T22:08:32.956Z,3.10
2018-01-22T22:10:59.313Z,3.10
2018-01-22T22:13:25.541Z,3.10
2018-01-22T22:15:51.772Z,3.10
2018-01-22T22:18:18.008Z,3.10
2018-01-22T22:20:44.252Z,3.10
2018-01-22T22:23:10.519Z,3.10
2018-01-22T22:25:36.774Z,3.10
2018-01-22T22:28:02.988Z,3.00
2018-01-22T22:30:29.245Z,3.00
2018-01-22T22:32:55.492Z,3.00
2018-01-22T22:35:21.720Z,2.90
2018-01-22T22:37:47.961Z,2.90
2018-01-22T22:40:14.180Z,2.90
2018-01-22T22:42:40.416Z,2.90
2018-01-22T22:45:07.591Z,2.90
2018-01-22T22:47:34.544Z,2.90
2018-01-22T22:50:01.519Z,2.90
2018-01-22T22:52:27.729Z,2.90
2018-01-22T22:54:54.711Z,2.90
2018-01-22T22:57:20.976Z,2.90
2018-01-22T22:59:47.187Z,2.90
2018-01-22T23:02:13.486Z,2.90
2018-01-22T23:04:39.737Z,2.90
2018-01-22T23:07:05.973Z,2.90
2018-01-22T23:09:32.222Z,2.90
2018-01-22T23:11:58.464Z,2.90
2018-01-22T23:14:24.677Z,2.90
2018-01-22T23:16:50.913Z,2.90
2018-01-22T23:19:17.164Z,3.00
2018-01-22T23:21:44.127Z,3.20
2018-01-22T23:24:11.135Z,3.20
2018-01-22T23:26:37.368Z,3.10
2018-01-22T23:29:04.368Z,3.00
2018-01-22T23:31:30.599Z,3.00
2018-01-22T23:33:56.821Z,3.00
2018-01-22T23:36:23.826Z,3.00
2018-01-22T23:38:50.045Z,2.90
2018-01-22T23:41:16.285Z,3.10
2018-01-22T23:43:42.537Z,3.10
2018-01-22T23:46:09.533Z,3.00
2018-01-22T23:48:35.811Z,2.90
2018-01-22T23:51:02.056Z,2.90
2018-01-22T23:53:29.041Z,2.90
2018-01-22T23:55:55.301Z,2.90
2018-01-22T23:58:21.602Z,3.00
